WXM80 ListenWXM80 Stop

You find our weather info also at:

UK Metoffice

WeatherCloud

Weather Underground

Northeastern Weather Network

AWEKAS

Citizen Weather Observer Program (CWOP)

HAMweather, WeatherForYou, PWS Weather


Weather Underground History page Text

Daily Summary for September 21, 2017 Units:  Both    English   Metric
« Previous Day
Next Day »
Daily Weekly Monthly Yearly Custom
  High: Low: Average:
Temperature: 76.2 °F /  24.6 °C 70.1 °F /  21.2 °C 73 °F /  22.8 °C
Dew Point: 68.7 °F /  20.4 °C 57.4 °F /  14.1 °C 66.2 °F /  19 °C
Humidity: 89 % 64 % 80 %
Wind Speed: 8.5 mph /  13.7 km/h - 4 mph /  6.4 km/h
Wind Gust: 14.0 mph /  22.5 km/h - -
Wind:- - East
Pressure: 29.95 in /  1014.1 hPa 29.85 in /  1010.7 hPa -
Precipitation: 0.00 in /  0 mm    
Historical Graphs
 
 
Tabular Data for September 21, 2017
Time Temperature Dew Point Pressure Wind Wind Speed Wind Gust Humidity Rainfall Rate (Hourly)
00:00 72.9 °F /  22.7 °C 67.1 °F /  19.5 °C 29.85 in /  1010.7 hPa NNW 1.8 mph /  2.9 km/h 4.6 mph /  7.4 km/h 82 % 0.00 in /  0 mm
00:05 72.9 °F /  22.7 °C 67.4 °F /  19.7 °C 29.85 in /  1010.7 hPa North 2.6 mph /  4.2 km/h 3.5 mph /  5.6 km/h 83 % 0.00 in /  0 mm
00:10 72.9 °F /  22.7 °C 67.4 °F /  19.7 °C 29.85 in /  1010.7 hPa North 2.0 mph /  3.2 km/h 6.0 mph /  9.7 km/h 83 % 0.00 in /  0 mm
00:15 72.8 °F /  22.7 °C 67.7 °F /  19.8 °C 29.85 in /  1010.7 hPa NNW 0.3 mph /  0.5 km/h 5.8 mph /  9.3 km/h 84 % 0.00 in /  0 mm
00:20 72.8 °F /  22.7 °C 67.7 °F /  19.8 °C 29.85 in /  1010.7 hPa NW 0.9 mph /  1.4 km/h 2.3 mph /  3.7 km/h 84 % 0.00 in /  0 mm
00:25 72.7 °F /  22.6 °C 67.6 °F /  19.8 °C 29.85 in /  1010.7 hPa NNW 3.3 mph /  5.3 km/h 4.6 mph /  7.4 km/h 84 % 0.00 in /  0 mm
00:30 72.7 °F /  22.6 °C 67.6 °F /  19.8 °C 29.85 in /  1010.7 hPa NNE 0.9 mph /  1.4 km/h 6.0 mph /  9.7 km/h 84 % 0.00 in /  0 mm
00:35 72.6 °F /  22.6 °C 67.5 °F /  19.7 °C 29.85 in /  1010.7 hPa North 0.9 mph /  1.4 km/h 6.9 mph /  11.1 km/h 84 % 0.00 in /  0 mm
00:41 72.5 °F /  22.5 °C 67.4 °F /  19.7 °C 29.85 in /  1010.7 hPa Calm   4.0 mph /  6.4 km/h 84 % 0.00 in /  0 mm
00:46 72.5 °F /  22.5 °C 67.4 °F /  19.7 °C 29.85 in /  1010.7 hPa NNW 2.0 mph /  3.2 km/h 6.0 mph /  9.7 km/h 84 % 0.00 in /  0 mm
00:51 72.5 °F /  22.5 °C 67.7 °F /  19.8 °C 29.85 in /  1010.7 hPa NW 2.0 mph /  3.2 km/h 6.0 mph /  9.7 km/h 85 % 0.00 in /  0 mm
00:56 72.4 °F /  22.4 °C 67.6 °F /  19.8 °C 29.85 in /  1010.7 hPa WNW 1.0 mph /  1.6 km/h 8.0 mph /  12.9 km/h 85 % 0.00 in /  0 mm
01:01 72.4 °F /  22.4 °C 67.6 °F /  19.8 °C 29.85 in /  1010.7 hPa NW 2.8 mph /  4.5 km/h 6.9 mph /  11.1 km/h 85 % 0.00 in /  0 mm
01:06 72.3 °F /  22.4 °C 67.5 °F /  19.7 °C 29.85 in /  1010.7 hPa North 1.4 mph /  2.3 km/h 3.5 mph /  5.6 km/h 85 % 0.00 in /  0 mm
01:11 72.2 °F /  22.3 °C 67.4 °F /  19.7 °C 29.86 in /  1011.1 hPa NNE 2.7 mph /  4.3 km/h 7.0 mph /  11.3 km/h 85 % 0.00 in /  0 mm
01:16 72.2 °F /  22.3 °C 67.4 °F /  19.7 °C 29.86 in /  1011.1 hPa NNW 3.9 mph /  6.3 km/h 5.8 mph /  9.3 km/h 85 % 0.00 in /  0 mm
01:21 72.1 °F /  22.3 °C 67.7 °F /  19.8 °C 29.85 in /  1010.7 hPa North 4.0 mph /  6.4 km/h 8.1 mph /  13 km/h 86 % 0.00 in /  0 mm
01:26 72.0 °F /  22.2 °C 67.2 °F /  19.6 °C 29.86 in /  1011.1 hPa NW 4.6 mph /  7.4 km/h 8.1 mph /  13 km/h 85 % 0.00 in /  0 mm
01:31 72.0 °F /  22.2 °C 66.9 °F /  19.4 °C 29.85 in /  1010.7 hPa NNE 4.7 mph /  7.6 km/h 10.4 mph /  16.7 km/h 84 % 0.00 in /  0 mm
01:36 72.1 °F /  22.3 °C 67.0 °F /  19.4 °C 29.85 in /  1010.7 hPa North 5.6 mph /  9 km/h 8.1 mph /  13 km/h 84 % 0.00 in /  0 mm
01:41 72.2 °F /  22.3 °C 67.1 °F /  19.5 °C 29.85 in /  1010.7 hPa North 3.8 mph /  6.1 km/h 6.0 mph /  9.7 km/h 84 % 0.00 in /  0 mm
01:42 72.2 °F /  22.3 °C 67.1 °F /  19.5 °C 29.85 in /  1010.7 hPa NNE 4.1 mph /  6.6 km/h 6.9 mph /  11.1 km/h 84 % 0.00 in /  0 mm
01:48 72.3 °F /  22.4 °C 67.2 °F /  19.6 °C 29.85 in /  1010.7 hPa North 2.9 mph /  4.7 km/h 6.9 mph /  11.1 km/h 84 % 0.00 in /  0 mm
01:51 72.3 °F /  22.4 °C 67.2 °F /  19.6 °C 29.85 in /  1010.7 hPa North 3.0 mph /  4.8 km/h 9.0 mph /  14.5 km/h 84 % 0.00 in /  0 mm
01:55 72.4 °F /  22.4 °C 67.3 °F /  19.6 °C 29.85 in /  1010.7 hPa NE 4.3 mph /  6.9 km/h 7.0 mph /  11.3 km/h 84 % 0.00 in /  0 mm
02:00 72.3 °F /  22.4 °C 67.2 °F /  19.6 °C 29.85 in /  1010.7 hPa NNE 4.9 mph /  7.9 km/h 6.9 mph /  11.1 km/h 84 % 0.00 in /  0 mm
02:06 72.3 °F /  22.4 °C 67.2 °F /  19.6 °C 29.85 in /  1010.7 hPa NNE 4.4 mph /  7.1 km/h 6.9 mph /  11.1 km/h 84 % 0.00 in /  0 mm
02:11 72.4 °F /  22.4 °C 67.3 °F /  19.6 °C 29.85 in /  1010.7 hPa North 2.1 mph /  3.4 km/h 4.6 mph /  7.4 km/h 84 % 0.00 in /  0 mm
02:16 72.3 °F /  22.4 °C 67.2 °F /  19.6 °C 29.85 in /  1010.7 hPa North 2.5 mph /  4 km/h 8.1 mph /  13 km/h 84 % 0.00 in /  0 mm
02:21 72.3 °F /  22.4 °C 67.2 °F /  19.6 °C 29.85 in /  1010.7 hPa North 2.8 mph /  4.5 km/h 6.9 mph /  11.1 km/h 84 % 0.00 in /  0 mm
02:26 72.3 °F /  22.4 °C 67.2 °F /  19.6 °C 29.85 in /  1010.7 hPa North 2.1 mph /  3.4 km/h 5.8 mph /  9.3 km/h 84 % 0.00 in /  0 mm
02:31 72.3 °F /  22.4 °C 67.2 °F /  19.6 °C 29.85 in /  1010.7 hPa NE 2.4 mph /  3.9 km/h 4.6 mph /  7.4 km/h 84 % 0.00 in /  0 mm
02:36 72.3 °F /  22.4 °C 67.2 °F /  19.6 °C 29.85 in /  1010.7 hPa NNE 2.0 mph /  3.2 km/h 3.5 mph /  5.6 km/h 84 % 0.00 in /  0 mm
02:41 72.3 °F /  22.4 °C 67.2 °F /  19.6 °C 29.85 in /  1010.7 hPa NE 2.0 mph /  3.2 km/h 3.5 mph /  5.6 km/h 84 % 0.00 in /  0 mm
02:43 72.3 °F /  22.4 °C 67.2 °F /  19.6 °C 29.86 in /  1011.1 hPa NNE 2.9 mph /  4.7 km/h 4.6 mph /  7.4 km/h 84 % 0.00 in /  0 mm
02:48 72.2 °F /  22.3 °C 67.1 °F /  19.5 °C 29.85 in /  1010.7 hPa NNW 3.5 mph /  5.6 km/h 7.0 mph /  11.3 km/h 84 % 0.00 in /  0 mm
02:53 72.2 °F /  22.3 °C 67.1 °F /  19.5 °C 29.85 in /  1010.7 hPa NNE 2.8 mph /  4.5 km/h 3.5 mph /  5.6 km/h 84 % 0.00 in /  0 mm
02:58 72.2 °F /  22.3 °C 67.1 °F /  19.5 °C 29.85 in /  1010.7 hPa NNE 5.6 mph /  9 km/h 10.4 mph /  16.7 km/h 84 % 0.00 in /  0 mm
03:03 72.2 °F /  22.3 °C 67.1 °F /  19.5 °C 29.85 in /  1010.7 hPa North 3.5 mph /  5.6 km/h 5.0 mph /  8 km/h 84 % 0.00 in /  0 mm
03:08 72.2 °F /  22.3 °C 67.1 °F /  19.5 °C 29.85 in /  1010.7 hPa NNE 5.3 mph /  8.5 km/h 7.0 mph /  11.3 km/h 84 % 0.00 in /  0 mm
03:13 72.2 °F /  22.3 °C 67.1 °F /  19.5 °C 29.86 in /  1011.1 hPa NNE 2.5 mph /  4 km/h 6.9 mph /  11.1 km/h 84 % 0.00 in /  0 mm
03:17 72.2 °F /  22.3 °C 67.1 °F /  19.5 °C 29.86 in /  1011.1 hPa North 0.4 mph /  0.6 km/h 4.0 mph /  6.4 km/h 84 % 0.00 in /  0 mm
03:22 72.2 °F /  22.3 °C 67.4 °F /  19.7 °C 29.86 in /  1011.1 hPa North 2.9 mph /  4.7 km/h 5.0 mph /  8 km/h 85 % 0.00 in /  0 mm
03:28 72.2 °F /  22.3 °C 67.4 °F /  19.7 °C 29.86 in /  1011.1 hPa NNW 1.8 mph /  2.9 km/h 3.5 mph /  5.6 km/h 85 % 0.00 in /  0 mm
03:33 72.2 °F /  22.3 °C 67.4 °F /  19.7 °C 29.86 in /  1011.1 hPa NNW 2.0 mph /  3.2 km/h 6.9 mph /  11.1 km/h 85 % 0.00 in /  0 mm
03:38 72.1 °F /  22.3 °C 67.3 °F /  19.6 °C 29.86 in /  1011.1 hPa North 3.8 mph /  6.1 km/h 6.9 mph /  11.1 km/h 85 % 0.00 in /  0 mm
03:43 72.0 °F /  22.2 °C 67.2 °F /  19.6 °C 29.86 in /  1011.1 hPa NNW 1.5 mph /  2.4 km/h 3.5 mph /  5.6 km/h 85 % 0.00 in /  0 mm
03:48 71.9 °F /  22.2 °C 67.1 °F /  19.5 °C 29.87 in /  1011.4 hPa NE 0.6 mph /  1 km/h 5.0 mph /  8 km/h 85 % 0.00 in /  0 mm
03:53 71.8 °F /  22.1 °C 67.4 °F /  19.7 °C 29.86 in /  1011.1 hPa North 0.7 mph /  1.1 km/h 4.0 mph /  6.4 km/h 86 % 0.00 in /  0 mm
03:58 71.7 °F /  22.1 °C 67.3 °F /  19.6 °C 29.86 in /  1011.1 hPa North 1.8 mph /  2.9 km/h 3.5 mph /  5.6 km/h 86 % 0.00 in /  0 mm
04:03 71.7 °F /  22.1 °C 67.3 °F /  19.6 °C 29.86 in /  1011.1 hPa North 1.8 mph /  2.9 km/h 7.0 mph /  11.3 km/h 86 % 0.00 in /  0 mm
04:08 71.6 °F /  22 °C 67.2 °F /  19.6 °C 29.86 in /  1011.1 hPa NNW 0.8 mph /  1.3 km/h 4.0 mph /  6.4 km/h 86 % 0.00 in /  0 mm
04:13 71.5 °F /  21.9 °C 67.1 °F /  19.5 °C 29.86 in /  1011.1 hPa NNE 3.1 mph /  5 km/h 4.6 mph /  7.4 km/h 86 % 0.00 in /  0 mm
04:18 71.4 °F /  21.9 °C 67.3 °F /  19.6 °C 29.86 in /  1011.1 hPa WNW 1.8 mph /  2.9 km/h 7.0 mph /  11.3 km/h 87 % 0.00 in /  0 mm
04:23 71.3 °F /  21.8 °C 67.2 °F /  19.6 °C 29.86 in /  1011.1 hPa West 2.9 mph /  4.7 km/h 4.6 mph /  7.4 km/h 87 % 0.00 in /  0 mm
04:28 71.2 °F /  21.8 °C 67.1 °F /  19.5 °C 29.86 in /  1011.1 hPa NNW 2.7 mph /  4.3 km/h 6.9 mph /  11.1 km/h 87 % 0.00 in /  0 mm
04:33 71.1 °F /  21.7 °C 67.0 °F /  19.4 °C 29.87 in /  1011.4 hPa NNW 3.1 mph /  5 km/h 5.8 mph /  9.3 km/h 87 % 0.00 in /  0 mm
04:38 71.0 °F /  21.7 °C 66.9 °F /  19.4 °C 29.87 in /  1011.4 hPa North 2.7 mph /  4.3 km/h 5.8 mph /  9.3 km/h 87 % 0.00 in /  0 mm
04:43 71.0 °F /  21.7 °C 67.3 °F /  19.6 °C 29.87 in /  1011.4 hPa NNE 1.5 mph /  2.4 km/h 7.0 mph /  11.3 km/h 88 % 0.00 in /  0 mm
04:48 70.9 °F /  21.6 °C 66.8 °F /  19.3 °C 29.86 in /  1011.1 hPa North 3.1 mph /  5 km/h 5.0 mph /  8 km/h 87 % 0.00 in /  0 mm
04:53 70.9 °F /  21.6 °C 67.2 °F /  19.6 °C 29.87 in /  1011.4 hPa NE 2.7 mph /  4.3 km/h 7.0 mph /  11.3 km/h 88 % 0.00 in /  0 mm
04:58 70.8 °F /  21.6 °C 67.1 °F /  19.5 °C 29.87 in /  1011.4 hPa NNE 3.1 mph /  5 km/h 3.5 mph /  5.6 km/h 88 % 0.00 in /  0 mm
05:03 70.7 °F /  21.5 °C 67.0 °F /  19.4 °C 29.87 in /  1011.4 hPa NW 0.7 mph /  1.1 km/h 3.5 mph /  5.6 km/h 88 % 0.00 in /  0 mm
05:13 70.7 °F /  21.5 °C 67.0 °F /  19.4 °C 29.87 in /  1011.4 hPa NNW 1.6 mph /  2.6 km/h 3.5 mph /  5.6 km/h 88 % 0.00 in /  0 mm
05:18 70.6 °F /  21.4 °C 66.9 °F /  19.4 °C 29.87 in /  1011.4 hPa NW 2.2 mph /  3.5 km/h 3.5 mph /  5.6 km/h 88 % 0.00 in /  0 mm
05:24 70.6 °F /  21.4 °C 67.2 °F /  19.6 °C 29.87 in /  1011.4 hPa NW 0.6 mph /  1 km/h 4.6 mph /  7.4 km/h 89 % 0.00 in /  0 mm
05:28 70.5 °F /  21.4 °C 66.8 °F /  19.3 °C 29.88 in /  1011.7 hPa NW 2.1 mph /  3.4 km/h 3.5 mph /  5.6 km/h 88 % 0.00 in /  0 mm
05:34 70.4 °F /  21.3 °C 66.7 °F /  19.3 °C 29.87 in /  1011.4 hPa North 1.7 mph /  2.7 km/h 6.9 mph /  11.1 km/h 88 % 0.00 in /  0 mm
05:39 70.4 °F /  21.3 °C 66.7 °F /  19.3 °C 29.87 in /  1011.4 hPa NNE 2.3 mph /  3.7 km/h 4.0 mph /  6.4 km/h 88 % 0.00 in /  0 mm
05:44 70.4 °F /  21.3 °C 66.7 °F /  19.3 °C 29.88 in /  1011.7 hPa West 0.8 mph /  1.3 km/h 3.5 mph /  5.6 km/h 88 % 0.00 in /  0 mm
05:49 70.4 °F /  21.3 °C 66.7 °F /  19.3 °C 29.88 in /  1011.7 hPa North 0.6 mph /  1 km/h 4.6 mph /  7.4 km/h 88 % 0.00 in /  0 mm
05:54 70.4 °F /  21.3 °C 66.7 °F /  19.3 °C 29.88 in /  1011.7 hPa NW 0.9 mph /  1.4 km/h 6.9 mph /  11.1 km/h 88 % 0.00 in /  0 mm
05:59 70.4 °F /  21.3 °C 66.7 °F /  19.3 °C 29.88 in /  1011.7 hPa Calm   5.8 mph /  9.3 km/h 88 % 0.00 in /  0 mm
06:04 70.4 °F /  21.3 °C 66.7 °F /  19.3 °C 29.88 in /  1011.7 hPa North 1.3 mph /  2.1 km/h 4.0 mph /  6.4 km/h 88 % 0.00 in /  0 mm
06:09 70.4 °F /  21.3 °C 66.7 °F /  19.3 °C 29.89 in /  1012.1 hPa North 0.9 mph /  1.4 km/h 4.6 mph /  7.4 km/h 88 % 0.00 in /  0 mm
06:10 70.4 °F /  21.3 °C 66.7 °F /  19.3 °C 29.89 in /  1012.1 hPa NNW 3.0 mph /  4.8 km/h 5.8 mph /  9.3 km/h 88 % 0.00 in /  0 mm
06:15 70.4 °F /  21.3 °C 66.7 °F /  19.3 °C 29.89 in /  1012.1 hPa NNE 2.5 mph /  4 km/h 3.5 mph /  5.6 km/h 88 % 0.00 in /  0 mm
06:20 70.4 °F /  21.3 °C 66.7 °F /  19.3 °C 29.89 in /  1012.1 hPa NNE 4.2 mph /  6.8 km/h 5.8 mph /  9.3 km/h 88 % 0.00 in /  0 mm
06:25 70.4 °F /  21.3 °C 66.7 °F /  19.3 °C 29.89 in /  1012.1 hPa NNE 4.6 mph /  7.4 km/h 9.2 mph /  14.8 km/h 88 % 0.00 in /  0 mm
06:30 70.5 °F /  21.4 °C 66.4 °F /  19.1 °C 29.89 in /  1012.1 hPa NNE 3.5 mph /  5.6 km/h 5.0 mph /  8 km/h 87 % 0.00 in /  0 mm
06:35 70.5 °F /  21.4 °C 66.4 °F /  19.1 °C 29.89 in /  1012.1 hPa North 4.7 mph /  7.6 km/h 7.0 mph /  11.3 km/h 87 % 0.00 in /  0 mm
06:40 70.6 °F /  21.4 °C 66.5 °F /  19.2 °C 29.89 in /  1012.1 hPa NNE 4.6 mph /  7.4 km/h 8.1 mph /  13 km/h 87 % 0.00 in /  0 mm
06:45 70.6 °F /  21.4 °C 66.5 °F /  19.2 °C 29.90 in /  1012.4 hPa NNE 5.2 mph /  8.4 km/h 10.4 mph /  16.7 km/h 87 % 0.00 in /  0 mm
06:50 70.7 °F /  21.5 °C 66.6 °F /  19.2 °C 29.90 in /  1012.4 hPa NNE 4.8 mph /  7.7 km/h 7.0 mph /  11.3 km/h 87 % 0.00 in /  0 mm
06:55 70.8 °F /  21.6 °C 66.7 °F /  19.3 °C 29.90 in /  1012.4 hPa NNE 5.4 mph /  8.7 km/h 10.4 mph /  16.7 km/h 87 % 0.00 in /  0 mm
07:00 70.8 °F /  21.6 °C 66.4 °F /  19.1 °C 29.90 in /  1012.4 hPa NNE 6.8 mph /  10.9 km/h 11.5 mph /  18.5 km/h 86 % 0.00 in /  0 mm
07:06 70.9 °F /  21.6 °C 66.5 °F /  19.2 °C 29.91 in /  1012.8 hPa North 5.0 mph /  8 km/h 12.0 mph /  19.3 km/h 86 % 0.00 in /  0 mm
07:11 71.0 °F /  21.7 °C 66.6 °F /  19.2 °C 29.90 in /  1012.4 hPa North 5.6 mph /  9 km/h 8.1 mph /  13 km/h 86 % 0.00 in /  0 mm
07:16 71.1 °F /  21.7 °C 66.7 °F /  19.3 °C 29.91 in /  1012.8 hPa North 5.0 mph /  8 km/h 9.0 mph /  14.5 km/h 86 % 0.00 in /  0 mm
07:21 71.1 °F /  21.7 °C 66.7 °F /  19.3 °C 29.91 in /  1012.8 hPa NNE 6.0 mph /  9.7 km/h 10.0 mph /  16.1 km/h 86 % 0.00 in /  0 mm
07:26 71.1 °F /  21.7 °C 66.7 °F /  19.3 °C 29.91 in /  1012.8 hPa North 5.0 mph /  8 km/h 9.0 mph /  14.5 km/h 86 % 0.00 in /  0 mm
07:30 71.2 °F /  21.8 °C 66.8 °F /  19.3 °C 29.91 in /  1012.8 hPa NNW 4.4 mph /  7.1 km/h 11.5 mph /  18.5 km/h 86 % 0.00 in /  0 mm
07:36 71.2 °F /  21.8 °C 66.8 °F /  19.3 °C 29.91 in /  1012.8 hPa NNE 6.0 mph /  9.7 km/h 8.0 mph /  12.9 km/h 86 % 0.00 in /  0 mm
07:41 71.3 °F /  21.8 °C 66.9 °F /  19.4 °C 29.91 in /  1012.8 hPa NNE 5.0 mph /  8 km/h 9.0 mph /  14.5 km/h 86 % 0.00 in /  0 mm
07:46 71.3 °F /  21.8 °C 66.9 °F /  19.4 °C 29.91 in /  1012.8 hPa North 5.0 mph /  8 km/h 9.0 mph /  14.5 km/h 86 % 0.00 in /  0 mm
07:51 71.3 °F /  21.8 °C 66.9 °F /  19.4 °C 29.91 in /  1012.8 hPa NNE 6.0 mph /  9.7 km/h 9.0 mph /  14.5 km/h 86 % 0.00 in /  0 mm
07:56 71.4 °F /  21.9 °C 67.0 °F /  19.4 °C 29.91 in /  1012.8 hPa NNE 5.0 mph /  8 km/h 10.0 mph /  16.1 km/h 86 % 0.00 in /  0 mm
08:01 71.5 °F /  21.9 °C 66.8 °F /  19.3 °C 29.91 in /  1012.8 hPa NNE 6.1 mph /  9.8 km/h 8.0 mph /  12.9 km/h 85 % 0.00 in /  0 mm
08:06 71.6 °F /  22 °C 66.8 °F /  19.3 °C 29.91 in /  1012.8 hPa NNW 5.2 mph /  8.4 km/h 11.5 mph /  18.5 km/h 85 % 0.00 in /  0 mm
08:11 71.7 °F /  22.1 °C 66.9 °F /  19.4 °C 29.92 in /  1013.1 hPa NNW 5.6 mph /  9 km/h 7.0 mph /  11.3 km/h 85 % 0.00 in /  0 mm
08:16 71.7 °F /  22.1 °C 66.9 °F /  19.4 °C 29.91 in /  1012.8 hPa North 2.0 mph /  3.2 km/h 8.0 mph /  12.9 km/h 85 % 0.00 in /  0 mm
08:21 71.7 °F /  22.1 °C 66.9 °F /  19.4 °C 29.92 in /  1013.1 hPa NNE 5.0 mph /  8 km/h 12.0 mph /  19.3 km/h 85 % 0.00 in /  0 mm
08:26 71.7 °F /  22.1 °C 67.0 °F /  19.4 °C 29.92 in /  1013.1 hPa NNE 5.0 mph /  8 km/h 9.0 mph /  14.5 km/h 85 % 0.00 in /  0 mm
08:31 71.8 °F /  22.1 °C 66.7 °F /  19.3 °C 29.92 in /  1013.1 hPa North 7.0 mph /  11.3 km/h 9.0 mph /  14.5 km/h 84 % 0.00 in /  0 mm
08:36 71.8 °F /  22.1 °C 66.7 °F /  19.3 °C 29.92 in /  1013.1 hPa North 6.0 mph /  9.7 km/h 7.0 mph /  11.3 km/h 84 % 0.00 in /  0 mm
08:41 71.9 °F /  22.2 °C 66.8 °F /  19.3 °C 29.92 in /  1013.1 hPa North 6.0 mph /  9.7 km/h 9.0 mph /  14.5 km/h 84 % 0.00 in /  0 mm
08:46 72.0 °F /  22.2 °C 66.9 °F /  19.4 °C 29.92 in /  1013.1 hPa North 3.0 mph /  4.8 km/h 10.0 mph /  16.1 km/h 84 % 0.00 in /  0 mm
08:51 72.1 °F /  22.3 °C 67.0 °F /  19.4 °C 29.92 in /  1013.1 hPa NNE 7.0 mph /  11.3 km/h 12.0 mph /  19.3 km/h 84 % 0.00 in /  0 mm
08:56 72.1 °F /  22.3 °C 67.0 °F /  19.4 °C 29.92 in /  1013.1 hPa NNE 5.0 mph /  8 km/h 8.0 mph /  12.9 km/h 84 % 0.00 in /  0 mm
09:01 72.2 °F /  22.3 °C 66.7 °F /  19.3 °C 29.92 in /  1013.1 hPa NE 4.8 mph /  7.7 km/h 9.2 mph /  14.8 km/h 83 % 0.00 in /  0 mm
09:06 72.4 °F /  22.4 °C 66.9 °F /  19.4 °C 29.92 in /  1013.1 hPa NNE 6.0 mph /  9.7 km/h 8.1 mph /  13 km/h 83 % 0.00 in /  0 mm
09:11 72.5 °F /  22.5 °C 67.0 °F /  19.4 °C 29.93 in /  1013.4 hPa NNE 3.9 mph /  6.3 km/h 5.8 mph /  9.3 km/h 83 % 0.00 in /  0 mm
09:16 72.6 °F /  22.6 °C 67.1 °F /  19.5 °C 29.93 in /  1013.4 hPa NNE 6.1 mph /  9.8 km/h 9.2 mph /  14.8 km/h 83 % 0.00 in /  0 mm
09:21 72.6 °F /  22.6 °C 66.8 °F /  19.3 °C 29.93 in /  1013.4 hPa NE 5.4 mph /  8.7 km/h 11.5 mph /  18.5 km/h 82 % 0.00 in /  0 mm
09:26 72.6 °F /  22.6 °C 66.8 °F /  19.3 °C 29.93 in /  1013.4 hPa North 4.7 mph /  7.6 km/h 8.1 mph /  13 km/h 82 % 0.00 in /  0 mm
09:31 72.6 °F /  22.6 °C 66.8 °F /  19.3 °C 29.93 in /  1013.4 hPa North 6.7 mph /  10.8 km/h 11.5 mph /  18.5 km/h 82 % 0.00 in /  0 mm
09:36 72.7 °F /  22.6 °C 66.9 °F /  19.4 °C 29.93 in /  1013.4 hPa NNE 6.4 mph /  10.3 km/h 8.1 mph /  13 km/h 82 % 0.00 in /  0 mm
09:41 72.8 °F /  22.7 °C 67.0 °F /  19.4 °C 29.93 in /  1013.4 hPa NE 6.8 mph /  10.9 km/h 11.5 mph /  18.5 km/h 82 % 0.00 in /  0 mm
09:46 72.9 °F /  22.7 °C 67.1 °F /  19.5 °C 29.93 in /  1013.4 hPa NE 3.7 mph /  6 km/h 9.2 mph /  14.8 km/h 82 % 0.00 in /  0 mm
09:51 73.0 °F /  22.8 °C 67.2 °F /  19.6 °C 29.93 in /  1013.4 hPa North 7.9 mph /  12.7 km/h 11.5 mph /  18.5 km/h 82 % 0.00 in /  0 mm
09:56 73.1 °F /  22.8 °C 67.3 °F /  19.6 °C 29.93 in /  1013.4 hPa NNE 5.3 mph /  8.5 km/h 8.1 mph /  13 km/h 82 % 0.00 in /  0 mm
10:01 73.2 °F /  22.9 °C 67.4 °F /  19.7 °C 29.94 in /  1013.8 hPa North 7.3 mph /  11.7 km/h 10.4 mph /  16.7 km/h 82 % 0.00 in /  0 mm
10:06 73.4 °F /  23 °C 67.6 °F /  19.8 °C 29.93 in /  1013.4 hPa NNE 3.2 mph /  5.1 km/h 5.8 mph /  9.3 km/h 82 % 0.00 in /  0 mm
10:17 73.7 °F /  23.2 °C 67.5 °F /  19.7 °C 29.94 in /  1013.8 hPa NE 4.9 mph /  7.9 km/h 11.5 mph /  18.5 km/h 81 % 0.00 in /  0 mm
10:22 73.9 °F /  23.3 °C 67.7 °F /  19.8 °C 29.94 in /  1013.8 hPa NE 5.6 mph /  9 km/h 8.1 mph /  13 km/h 81 % 0.00 in /  0 mm
10:27 74.0 °F /  23.3 °C 67.8 °F /  19.9 °C 29.94 in /  1013.8 hPa NNE 3.8 mph /  6.1 km/h 6.9 mph /  11.1 km/h 81 % 0.00 in /  0 mm
10:32 74.2 °F /  23.4 °C 68.0 °F /  20 °C 29.94 in /  1013.8 hPa NNE 3.4 mph /  5.5 km/h 5.8 mph /  9.3 km/h 81 % 0.00 in /  0 mm
10:37 74.4 °F /  23.6 °C 68.2 °F /  20.1 °C 29.95 in /  1014.1 hPa NNE 5.2 mph /  8.4 km/h 9.2 mph /  14.8 km/h 81 % 0.00 in /  0 mm
10:42 74.6 °F /  23.7 °C 68.0 °F /  20 °C 29.94 in /  1013.8 hPa NNE 4.3 mph /  6.9 km/h 9.2 mph /  14.8 km/h 80 % 0.00 in /  0 mm
10:47 74.7 °F /  23.7 °C 67.8 °F /  19.9 °C 29.94 in /  1013.8 hPa NE 6.8 mph /  10.9 km/h 11.5 mph /  18.5 km/h 79 % 0.00 in /  0 mm
10:52 74.9 °F /  23.8 °C 67.6 °F /  19.8 °C 29.94 in /  1013.8 hPa NE 2.3 mph /  3.7 km/h 5.8 mph /  9.3 km/h 78 % 0.00 in /  0 mm
10:57 75.0 °F /  23.9 °C 68.0 °F /  20 °C 29.94 in /  1013.8 hPa NNE 4.6 mph /  7.4 km/h 7.0 mph /  11.3 km/h 79 % 0.00 in /  0 mm
11:02 75.2 °F /  24 °C 68.2 °F /  20.1 °C 29.94 in /  1013.8 hPa NNE 3.6 mph /  5.8 km/h 6.9 mph /  11.1 km/h 79 % 0.00 in /  0 mm
11:07 75.4 °F /  24.1 °C 68.4 °F /  20.2 °C 29.94 in /  1013.8 hPa NNE 4.5 mph /  7.2 km/h 8.1 mph /  13 km/h 79 % 0.00 in /  0 mm
11:12 75.6 °F /  24.2 °C 68.3 °F /  20.2 °C 29.94 in /  1013.8 hPa North 4.6 mph /  7.4 km/h 8.1 mph /  13 km/h 78 % 0.00 in /  0 mm
11:17 75.7 °F /  24.3 °C 68.4 °F /  20.2 °C 29.94 in /  1013.8 hPa NNE 3.1 mph /  5 km/h 8.0 mph /  12.9 km/h 78 % 0.00 in /  0 mm
11:22 75.8 °F /  24.3 °C 68.1 °F /  20.1 °C 29.94 in /  1013.8 hPa North 6.2 mph /  10 km/h 8.1 mph /  13 km/h 77 % 0.00 in /  0 mm
11:27 75.9 °F /  24.4 °C 68.2 °F /  20.1 °C 29.94 in /  1013.8 hPa North 5.6 mph /  9 km/h 8.0 mph /  12.9 km/h 77 % 0.00 in /  0 mm
11:33 76.0 °F /  24.4 °C 67.9 °F /  19.9 °C 29.94 in /  1013.8 hPa NE 2.9 mph /  4.7 km/h 8.1 mph /  13 km/h 76 % 0.00 in /  0 mm
11:38 76.0 °F /  24.4 °C 67.9 °F /  19.9 °C 29.94 in /  1013.8 hPa NNE 5.2 mph /  8.4 km/h 9.2 mph /  14.8 km/h 76 % 0.00 in /  0 mm
11:43 76.0 °F /  24.4 °C 68.6 °F /  20.3 °C 29.94 in /  1013.8 hPa ENE 3.3 mph /  5.3 km/h 5.8 mph /  9.3 km/h 78 % 0.00 in /  0 mm
11:48 76.1 °F /  24.5 °C 68.7 °F /  20.4 °C 29.94 in /  1013.8 hPa ENE 2.9 mph /  4.7 km/h 5.8 mph /  9.3 km/h 78 % 0.00 in /  0 mm
11:53 76.1 °F /  24.5 °C 68.7 °F /  20.4 °C 29.94 in /  1013.8 hPa NNE 2.3 mph /  3.7 km/h 5.0 mph /  8 km/h 78 % 0.00 in /  0 mm
11:58 76.1 °F /  24.5 °C 68.7 °F /  20.4 °C 29.93 in /  1013.4 hPa NE 2.9 mph /  4.7 km/h 5.8 mph /  9.3 km/h 78 % 0.00 in /  0 mm
12:03 76.2 °F /  24.6 °C 68.5 °F /  20.3 °C 29.94 in /  1013.8 hPa North 3.6 mph /  5.8 km/h 5.8 mph /  9.3 km/h 77 % 0.00 in /  0 mm
12:08 76.1 °F /  24.5 °C 68.4 °F /  20.2 °C 29.93 in /  1013.4 hPa NNE 5.8 mph /  9.3 km/h 9.2 mph /  14.8 km/h 77 % 0.00 in /  0 mm
12:13 76.0 °F /  24.4 °C 67.9 °F /  19.9 °C 29.94 in /  1013.8 hPa NNE 8.5 mph /  13.7 km/h 11.5 mph /  18.5 km/h 76 % 0.00 in /  0 mm
12:18 75.9 °F /  24.4 °C 67.8 °F /  19.9 °C 29.93 in /  1013.4 hPa NNE 6.2 mph /  10 km/h 8.1 mph /  13 km/h 76 % 0.00 in /  0 mm
12:23 75.8 °F /  24.3 °C 68.1 °F /  20.1 °C 29.93 in /  1013.4 hPa NNE 3.7 mph /  6 km/h 5.8 mph /  9.3 km/h 77 % 0.00 in /  0 mm
12:28 75.8 °F /  24.3 °C 68.4 °F /  20.2 °C 29.93 in /  1013.4 hPa North 2.6 mph /  4.2 km/h 4.0 mph /  6.4 km/h 78 % 0.00 in /  0 mm
12:33 75.7 °F /  24.3 °C 68.4 °F /  20.2 °C 29.93 in /  1013.4 hPa NNE 4.4 mph /  7.1 km/h 6.9 mph /  11.1 km/h 78 % 0.00 in /  0 mm
12:38 75.7 °F /  24.3 °C 68.4 °F /  20.2 °C 29.93 in /  1013.4 hPa ENE 4.3 mph /  6.9 km/h 6.9 mph /  11.1 km/h 78 % 0.00 in /  0 mm
12:43 75.6 °F /  24.2 °C 68.3 °F /  20.2 °C 29.93 in /  1013.4 hPa NE 5.4 mph /  8.7 km/h 9.0 mph /  14.5 km/h 78 % 0.00 in /  0 mm
12:44 75.5 °F /  24.2 °C 67.8 °F /  19.9 °C 29.93 in /  1013.4 hPa NNE 5.9 mph /  9.5 km/h 10.4 mph /  16.7 km/h 77 % 0.00 in /  0 mm
12:49 75.5 °F /  24.2 °C 67.8 °F /  19.9 °C 29.93 in /  1013.4 hPa NNE 5.8 mph /  9.3 km/h 10.4 mph /  16.7 km/h 77 % 0.00 in /  0 mm
12:54 75.4 °F /  24.1 °C 67.7 °F /  19.8 °C 29.93 in /  1013.4 hPa North 5.9 mph /  9.5 km/h 6.9 mph /  11.1 km/h 77 % 0.00 in /  0 mm
12:59 75.4 °F /  24.1 °C 67.3 °F /  19.6 °C 29.93 in /  1013.4 hPa NNE 4.7 mph /  7.6 km/h 9.2 mph /  14.8 km/h 76 % 0.00 in /  0 mm
13:04 75.3 °F /  24.1 °C 67.2 °F /  19.6 °C 29.93 in /  1013.4 hPa NNE 5.5 mph /  8.9 km/h 6.9 mph /  11.1 km/h 76 % 0.00 in /  0 mm
13:09 75.4 °F /  24.1 °C 67.7 °F /  19.8 °C 29.93 in /  1013.4 hPa NNE 3.6 mph /  5.8 km/h 5.8 mph /  9.3 km/h 77 % 0.00 in /  0 mm
13:15 75.5 °F /  24.2 °C 68.2 °F /  20.1 °C 29.92 in /  1013.1 hPa North 3.9 mph /  6.3 km/h 7.0 mph /  11.3 km/h 78 % 0.00 in /  0 mm
13:20 75.6 °F /  24.2 °C 68.3 °F /  20.2 °C 29.92 in /  1013.1 hPa NNE 3.5 mph /  5.6 km/h 6.0 mph /  9.7 km/h 78 % 0.00 in /  0 mm
13:25 75.5 °F /  24.2 °C 67.8 °F /  19.9 °C 29.92 in /  1013.1 hPa NE 3.1 mph /  5 km/h 6.9 mph /  11.1 km/h 77 % 0.00 in /  0 mm
13:30 75.5 °F /  24.2 °C 67.4 °F /  19.7 °C 29.92 in /  1013.1 hPa NNE 7.3 mph /  11.7 km/h 11.5 mph /  18.5 km/h 76 % 0.00 in /  0 mm
13:35 75.5 °F /  24.2 °C 67.8 °F /  19.9 °C 29.92 in /  1013.1 hPa NNE 5.9 mph /  9.5 km/h 6.9 mph /  11.1 km/h 77 % 0.00 in /  0 mm
13:40 75.6 °F /  24.2 °C 67.9 °F /  19.9 °C 29.92 in /  1013.1 hPa NNE 3.3 mph /  5.3 km/h 11.5 mph /  18.5 km/h 77 % 0.00 in /  0 mm
13:45 75.6 °F /  24.2 °C 67.9 °F /  19.9 °C 29.92 in /  1013.1 hPa NNE 2.5 mph /  4 km/h 4.0 mph /  6.4 km/h 77 % 0.00 in /  0 mm
13:50 75.6 °F /  24.2 °C 67.9 °F /  19.9 °C 29.92 in /  1013.1 hPa NE 5.6 mph /  9 km/h 9.2 mph /  14.8 km/h 77 % 0.00 in /  0 mm
13:55 75.6 °F /  24.2 °C 67.5 °F /  19.7 °C 29.92 in /  1013.1 hPa NE 7.2 mph /  11.6 km/h 11.5 mph /  18.5 km/h 76 % 0.00 in /  0 mm
14:00 75.6 °F /  24.2 °C 67.5 °F /  19.7 °C 29.92 in /  1013.1 hPa NNE 3.5 mph /  5.6 km/h 6.9 mph /  11.1 km/h 76 % 0.00 in /  0 mm
14:05 75.6 °F /  24.2 °C 67.9 °F /  19.9 °C 29.92 in /  1013.1 hPa NE 7.0 mph /  11.3 km/h 9.0 mph /  14.5 km/h 77 % 0.00 in /  0 mm
14:10 75.6 °F /  24.2 °C 67.5 °F /  19.7 °C 29.92 in /  1013.1 hPa NNE 6.2 mph /  10 km/h 9.2 mph /  14.8 km/h 76 % 0.00 in /  0 mm
14:15 75.7 °F /  24.3 °C 68.0 °F /  20 °C 29.91 in /  1012.8 hPa NNE 2.3 mph /  3.7 km/h 6.0 mph /  9.7 km/h 77 % 0.00 in /  0 mm
14:20 75.6 °F /  24.2 °C 67.9 °F /  19.9 °C 29.92 in /  1013.1 hPa North 4.5 mph /  7.2 km/h 8.1 mph /  13 km/h 77 % 0.00 in /  0 mm
14:25 75.7 °F /  24.3 °C 68.0 °F /  20 °C 29.92 in /  1013.1 hPa NNE 3.8 mph /  6.1 km/h 5.8 mph /  9.3 km/h 77 % 0.00 in /  0 mm
14:30 75.8 °F /  24.3 °C 68.1 °F /  20.1 °C 29.91 in /  1012.8 hPa NNE 3.5 mph /  5.6 km/h 6.9 mph /  11.1 km/h 77 % 0.00 in /  0 mm
14:35 75.9 °F /  24.4 °C 68.2 °F /  20.1 °C 29.92 in /  1013.1 hPa NNE 3.3 mph /  5.3 km/h 6.9 mph /  11.1 km/h 77 % 0.00 in /  0 mm
14:41 76.0 °F /  24.4 °C 68.3 °F /  20.2 °C 29.92 in /  1013.1 hPa NNE 2.0 mph /  3.2 km/h 5.0 mph /  8 km/h 77 % 0.00 in /  0 mm
14:46 76.1 °F /  24.5 °C 68.7 °F /  20.4 °C 29.92 in /  1013.1 hPa NNE 3.0 mph /  4.8 km/h 7.0 mph /  11.3 km/h 78 % 0.00 in /  0 mm
14:51 76.1 °F /  24.5 °C 68.4 °F /  20.2 °C 29.92 in /  1013.1 hPa North 3.0 mph /  4.8 km/h 8.0 mph /  12.9 km/h 77 % 0.00 in /  0 mm
14:56 76.2 °F /  24.6 °C 68.5 °F /  20.3 °C 29.92 in /  1013.1 hPa NNE 4.7 mph /  7.6 km/h 6.9 mph /  11.1 km/h 77 % 0.00 in /  0 mm
15:01 76.2 °F /  24.6 °C 68.5 °F /  20.3 °C 29.91 in /  1012.8 hPa NNE 4.8 mph /  7.7 km/h 6.9 mph /  11.1 km/h 77 % 0.00 in /  0 mm
15:06 76.1 °F /  24.5 °C 67.6 °F /  19.8 °C 29.91 in /  1012.8 hPa North 6.0 mph /  9.7 km/h 14.0 mph /  22.5 km/h 75 % 0.00 in /  0 mm
15:11 76.1 °F /  24.5 °C 67.9 °F /  19.9 °C 29.91 in /  1012.8 hPa NNE 6.0 mph /  9.7 km/h 12.0 mph /  19.3 km/h 76 % 0.00 in /  0 mm
15:16 76.0 °F /  24.4 °C 67.5 °F /  19.7 °C 29.91 in /  1012.8 hPa NNE 6.0 mph /  9.7 km/h 12.0 mph /  19.3 km/h 75 % 0.00 in /  0 mm
15:21 75.9 °F /  24.4 °C 67.4 °F /  19.7 °C 29.91 in /  1012.8 hPa NNE 6.0 mph /  9.7 km/h 12.0 mph /  19.3 km/h 75 % 0.00 in /  0 mm
15:26 76.0 °F /  24.4 °C 67.5 °F /  19.7 °C 29.91 in /  1012.8 hPa NNE 5.0 mph /  8 km/h 10.0 mph /  16.1 km/h 75 % 0.00 in /  0 mm
15:31 76.0 °F /  24.4 °C 67.5 °F /  19.7 °C 29.92 in /  1013.1 hPa NNE 6.0 mph /  9.7 km/h 12.0 mph /  19.3 km/h 75 % 0.00 in /  0 mm
15:36 76.0 °F /  24.4 °C 67.5 °F /  19.7 °C 29.91 in /  1012.8 hPa NNE 6.0 mph /  9.7 km/h 9.0 mph /  14.5 km/h 75 % 0.00 in /  0 mm
15:41 76.0 °F /  24.4 °C 67.9 °F /  19.9 °C 29.91 in /  1012.8 hPa NNE 5.0 mph /  8 km/h 9.0 mph /  14.5 km/h 76 % 0.00 in /  0 mm
15:46 76.0 °F /  24.4 °C 68.3 °F /  20.2 °C 29.91 in /  1012.8 hPa NNE 3.0 mph /  4.8 km/h 8.0 mph /  12.9 km/h 77 % 0.00 in /  0 mm
15:51 75.9 °F /  24.4 °C 67.8 °F /  19.9 °C 29.91 in /  1012.8 hPa NNE 3.0 mph /  4.8 km/h 8.0 mph /  12.9 km/h 76 % 0.00 in /  0 mm
15:56 75.9 °F /  24.4 °C 68.2 °F /  20.1 °C 29.91 in /  1012.8 hPa North 2.8 mph /  4.5 km/h 6.9 mph /  11.1 km/h 77 % 0.00 in /  0 mm
16:01 75.9 °F /  24.4 °C 68.2 °F /  20.1 °C 29.91 in /  1012.8 hPa North 3.0 mph /  4.8 km/h 4.6 mph /  7.4 km/h 77 % 0.00 in /  0 mm
16:02 75.9 °F /  24.4 °C 68.2 °F /  20.1 °C 29.91 in /  1012.8 hPa North 1.9 mph /  3.1 km/h 5.8 mph /  9.3 km/h 77 % 0.00 in /  0 mm
16:07 75.8 °F /  24.3 °C 68.1 °F /  20.1 °C 29.91 in /  1012.8 hPa NNE 4.9 mph /  7.9 km/h 9.2 mph /  14.8 km/h 77 % 0.00 in /  0 mm
16:12 75.7 °F /  24.3 °C 68.0 °F /  20 °C 29.91 in /  1012.8 hPa North 6.3 mph /  10.1 km/h 9.0 mph /  14.5 km/h 77 % 0.00 in /  0 mm
16:17 75.7 °F /  24.3 °C 68.0 °F /  20 °C 29.92 in /  1013.1 hPa NNE 5.4 mph /  8.7 km/h 9.0 mph /  14.5 km/h 77 % 0.00 in /  0 mm
16:22 75.6 °F /  24.2 °C 67.5 °F /  19.7 °C 29.92 in /  1013.1 hPa NE 6.7 mph /  10.8 km/h 10.4 mph /  16.7 km/h 76 % 0.00 in /  0 mm
16:27 75.5 °F /  24.2 °C 67.4 °F /  19.7 °C 29.91 in /  1012.8 hPa NNE 4.4 mph /  7.1 km/h 5.0 mph /  8 km/h 76 % 0.00 in /  0 mm
16:32 75.5 °F /  24.2 °C 67.4 °F /  19.7 °C 29.92 in /  1013.1 hPa NNE 4.9 mph /  7.9 km/h 7.0 mph /  11.3 km/h 76 % 0.00 in /  0 mm
16:38 75.4 °F /  24.1 °C 67.7 °F /  19.8 °C 29.92 in /  1013.1 hPa NE 3.9 mph /  6.3 km/h 10.4 mph /  16.7 km/h 77 % 0.00 in /  0 mm
16:43 75.4 °F /  24.1 °C 67.7 °F /  19.8 °C 29.92 in /  1013.1 hPa North 3.9 mph /  6.3 km/h 9.2 mph /  14.8 km/h 77 % 0.00 in /  0 mm
16:48 75.3 °F /  24.1 °C 67.6 °F /  19.8 °C 29.92 in /  1013.1 hPa NE 1.4 mph /  2.3 km/h 6.9 mph /  11.1 km/h 77 % 0.00 in /  0 mm
16:53 75.2 °F /  24 °C 67.5 °F /  19.7 °C 29.92 in /  1013.1 hPa North 4.6 mph /  7.4 km/h 5.8 mph /  9.3 km/h 77 % 0.00 in /  0 mm
16:58 75.2 °F /  24 °C 67.5 °F /  19.7 °C 29.92 in /  1013.1 hPa NNE 3.7 mph /  6 km/h 5.8 mph /  9.3 km/h 77 % 0.00 in /  0 mm
17:03 75.1 °F /  23.9 °C 66.2 °F /  19 °C 29.92 in /  1013.1 hPa NNE 5.7 mph /  9.2 km/h 10.4 mph /  16.7 km/h 74 % 0.00 in /  0 mm
17:08 75.0 °F /  23.9 °C 66.1 °F /  18.9 °C 29.92 in /  1013.1 hPa NE 5.3 mph /  8.5 km/h 10.4 mph /  16.7 km/h 74 % 0.00 in /  0 mm
17:13 75.0 °F /  23.9 °C 66.5 °F /  19.2 °C 29.92 in /  1013.1 hPa North 5.5 mph /  8.9 km/h 8.1 mph /  13 km/h 75 % 0.00 in /  0 mm
17:18 74.9 °F /  23.8 °C 66.8 °F /  19.3 °C 29.92 in /  1013.1 hPa North 5.9 mph /  9.5 km/h 11.5 mph /  18.5 km/h 76 % 0.00 in /  0 mm
17:23 74.9 °F /  23.8 °C 66.8 °F /  19.3 °C 29.93 in /  1013.4 hPa North 6.7 mph /  10.8 km/h 9.2 mph /  14.8 km/h 76 % 0.00 in /  0 mm
17:28 74.9 °F /  23.8 °C 66.4 °F /  19.1 °C 29.92 in /  1013.1 hPa NNE 6.9 mph /  11.1 km/h 9.2 mph /  14.8 km/h 75 % 0.00 in /  0 mm
17:33 74.8 °F /  23.8 °C 66.7 °F /  19.3 °C 29.92 in /  1013.1 hPa NE 4.8 mph /  7.7 km/h 9.2 mph /  14.8 km/h 76 % 0.00 in /  0 mm
17:38 74.8 °F /  23.8 °C 66.7 °F /  19.3 °C 29.93 in /  1013.4 hPa NNE 4.2 mph /  6.8 km/h 8.1 mph /  13 km/h 76 % 0.00 in /  0 mm
17:43 74.7 °F /  23.7 °C 67.0 °F /  19.4 °C 29.93 in /  1013.4 hPa NNW 4.2 mph /  6.8 km/h 6.0 mph /  9.7 km/h 77 % 0.00 in /  0 mm
17:48 74.7 °F /  23.7 °C 66.6 °F /  19.2 °C 29.92 in /  1013.1 hPa NNW 4.6 mph /  7.4 km/h 5.8 mph /  9.3 km/h 76 % 0.00 in /  0 mm
17:53 74.6 °F /  23.7 °C 66.5 °F /  19.2 °C 29.92 in /  1013.1 hPa NNE 3.6 mph /  5.8 km/h 6.0 mph /  9.7 km/h 76 % 0.00 in /  0 mm
17:58 74.5 °F /  23.6 °C 66.4 °F /  19.1 °C 29.93 in /  1013.4 hPa NNE 2.7 mph /  4.3 km/h 4.6 mph /  7.4 km/h 76 % 0.00 in /  0 mm
18:03 74.5 °F /  23.6 °C 66.8 °F /  19.3 °C 29.93 in /  1013.4 hPa NNE 3.5 mph /  5.6 km/h 6.9 mph /  11.1 km/h 77 % 0.00 in /  0 mm
18:08 74.4 °F /  23.6 °C 66.7 °F /  19.3 °C 29.93 in /  1013.4 hPa NNE 2.9 mph /  4.7 km/h 7.0 mph /  11.3 km/h 77 % 0.00 in /  0 mm
18:13 74.4 °F /  23.6 °C 67.1 °F /  19.5 °C 29.93 in /  1013.4 hPa NNE 4.5 mph /  7.2 km/h 8.0 mph /  12.9 km/h 78 % 0.00 in /  0 mm
18:18 74.3 °F /  23.5 °C 66.6 °F /  19.2 °C 29.93 in /  1013.4 hPa NNE 4.1 mph /  6.6 km/h 7.0 mph /  11.3 km/h 77 % 0.00 in /  0 mm
18:23 74.1 °F /  23.4 °C 66.4 °F /  19.1 °C 29.93 in /  1013.4 hPa NE 3.8 mph /  6.1 km/h 7.0 mph /  11.3 km/h 77 % 0.00 in /  0 mm
18:28 74.0 °F /  23.3 °C 66.3 °F /  19.1 °C 29.93 in /  1013.4 hPa NNE 4.1 mph /  6.6 km/h 7.0 mph /  11.3 km/h 77 % 0.00 in /  0 mm
18:33 73.9 °F /  23.3 °C 66.2 °F /  19 °C 29.93 in /  1013.4 hPa North 5.0 mph /  8 km/h 7.0 mph /  11.3 km/h 77 % 0.00 in /  0 mm
18:38 73.8 °F /  23.2 °C 66.5 °F /  19.2 °C 29.94 in /  1013.8 hPa NNE 3.6 mph /  5.8 km/h 5.8 mph /  9.3 km/h 78 % 0.00 in /  0 mm
18:43 73.8 °F /  23.2 °C 66.5 °F /  19.2 °C 29.93 in /  1013.4 hPa NNE 4.8 mph /  7.7 km/h 6.9 mph /  11.1 km/h 78 % 0.00 in /  0 mm
18:48 73.7 °F /  23.2 °C 66.4 °F /  19.1 °C 29.93 in /  1013.4 hPa NNE 3.8 mph /  6.1 km/h 5.8 mph /  9.3 km/h 78 % 0.00 in /  0 mm
18:53 73.6 °F /  23.1 °C 66.7 °F /  19.3 °C 29.93 in /  1013.4 hPa NNE 3.4 mph /  5.5 km/h 5.0 mph /  8 km/h 79 % 0.00 in /  0 mm
18:58 73.6 °F /  23.1 °C 66.7 °F /  19.3 °C 29.93 in /  1013.4 hPa NNE 2.4 mph /  3.9 km/h 3.5 mph /  5.6 km/h 79 % 0.00 in /  0 mm
19:03 73.5 °F /  23.1 °C 66.6 °F /  19.2 °C 29.93 in /  1013.4 hPa NNE 2.6 mph /  4.2 km/h 4.0 mph /  6.4 km/h 79 % 0.00 in /  0 mm
19:09 73.4 °F /  23 °C 66.9 °F /  19.4 °C 29.93 in /  1013.4 hPa North 2.9 mph /  4.7 km/h 4.6 mph /  7.4 km/h 80 % 0.00 in /  0 mm
19:14 73.3 °F /  22.9 °C 66.8 °F /  19.3 °C 29.93 in /  1013.4 hPa NNE 4.7 mph /  7.6 km/h 5.0 mph /  8 km/h 80 % 0.00 in /  0 mm
19:19 73.2 °F /  22.9 °C 67.0 °F /  19.4 °C 29.93 in /  1013.4 hPa NNE 4.1 mph /  6.6 km/h 7.0 mph /  11.3 km/h 81 % 0.00 in /  0 mm
19:24 73.1 °F /  22.8 °C 66.9 °F /  19.4 °C 29.93 in /  1013.4 hPa NNE 3.4 mph /  5.5 km/h 5.8 mph /  9.3 km/h 81 % 0.00 in /  0 mm
19:29 73.0 °F /  22.8 °C 66.5 °F /  19.2 °C 29.93 in /  1013.4 hPa NNE 3.9 mph /  6.3 km/h 5.8 mph /  9.3 km/h 80 % 0.00 in /  0 mm
19:34 72.9 °F /  22.7 °C 66.4 °F /  19.1 °C 29.94 in /  1013.8 hPa NE 4.0 mph /  6.4 km/h 6.0 mph /  9.7 km/h 80 % 0.00 in /  0 mm
19:39 72.9 °F /  22.7 °C 66.4 °F /  19.1 °C 29.94 in /  1013.8 hPa NNE 3.2 mph /  5.1 km/h 6.9 mph /  11.1 km/h 80 % 0.00 in /  0 mm
19:44 72.8 °F /  22.7 °C 66.6 °F /  19.2 °C 29.94 in /  1013.8 hPa ENE 2.4 mph /  3.9 km/h 4.6 mph /  7.4 km/h 81 % 0.00 in /  0 mm
19:49 72.7 °F /  22.6 °C 66.2 °F /  19 °C 29.94 in /  1013.8 hPa East 4.6 mph /  7.4 km/h 9.2 mph /  14.8 km/h 80 % 0.00 in /  0 mm
19:54 72.5 °F /  22.5 °C 63.7 °F /  17.6 °C 29.94 in /  1013.8 hPa ENE 2.9 mph /  4.7 km/h 6.9 mph /  11.1 km/h 74 % 0.00 in /  0 mm
19:59 72.4 °F /  22.4 °C 63.3 °F /  17.4 °C 29.94 in /  1013.8 hPa North 3.6 mph /  5.8 km/h 9.2 mph /  14.8 km/h 73 % 0.00 in /  0 mm
20:05 72.4 °F /  22.4 °C 63.6 °F /  17.6 °C 29.94 in /  1013.8 hPa NE 6.3 mph /  10.1 km/h 10.4 mph /  16.7 km/h 74 % 0.00 in /  0 mm
20:10 72.4 °F /  22.4 °C 62.9 °F /  17.2 °C 29.94 in /  1013.8 hPa NNE 5.3 mph /  8.5 km/h 9.2 mph /  14.8 km/h 72 % 0.00 in /  0 mm
20:15 72.3 °F /  22.4 °C 62.8 °F /  17.1 °C 29.94 in /  1013.8 hPa NE 3.2 mph /  5.1 km/h 5.8 mph /  9.3 km/h 72 % 0.00 in /  0 mm
20:20 72.3 °F /  22.4 °C 62.4 °F /  16.9 °C 29.94 in /  1013.8 hPa NNE 4.9 mph /  7.9 km/h 8.1 mph /  13 km/h 71 % 0.00 in /  0 mm
20:25 72.4 °F /  22.4 °C 62.5 °F /  16.9 °C 29.95 in /  1014.1 hPa NE 3.9 mph /  6.3 km/h 6.0 mph /  9.7 km/h 71 % 0.00 in /  0 mm
20:27 72.3 °F /  22.4 °C 62.4 °F /  16.9 °C 29.95 in /  1014.1 hPa NNE 3.5 mph /  5.6 km/h 6.9 mph /  11.1 km/h 71 % 0.00 in /  0 mm
20:32 72.4 °F /  22.4 °C 62.9 °F /  17.2 °C 29.95 in /  1014.1 hPa NNE 5.2 mph /  8.4 km/h 9.2 mph /  14.8 km/h 72 % 0.00 in /  0 mm
20:37 72.4 °F /  22.4 °C 62.5 °F /  16.9 °C 29.95 in /  1014.1 hPa NNE 4.6 mph /  7.4 km/h 6.9 mph /  11.1 km/h 71 % 0.00 in /  0 mm
20:42 72.3 °F /  22.4 °C 62.4 °F /  16.9 °C 29.95 in /  1014.1 hPa NNE 4.9 mph /  7.9 km/h 8.0 mph /  12.9 km/h 71 % 0.00 in /  0 mm
20:47 72.3 °F /  22.4 °C 62.8 °F /  17.1 °C 29.95 in /  1014.1 hPa NE 3.5 mph /  5.6 km/h 9.2 mph /  14.8 km/h 72 % 0.00 in /  0 mm
20:52 72.2 °F /  22.3 °C 62.3 °F /  16.8 °C 29.95 in /  1014.1 hPa NNE 4.8 mph /  7.7 km/h 11.5 mph /  18.5 km/h 71 % 0.00 in /  0 mm
20:57 72.2 °F /  22.3 °C 62.3 °F /  16.8 °C 29.95 in /  1014.1 hPa NNE 4.7 mph /  7.6 km/h 9.2 mph /  14.8 km/h 71 % 0.00 in /  0 mm
21:02 72.2 °F /  22.3 °C 62.3 °F /  16.8 °C 29.95 in /  1014.1 hPa NNW 5.1 mph /  8.2 km/h 9.2 mph /  14.8 km/h 71 % 0.00 in /  0 mm
21:07 72.1 °F /  22.3 °C 61.8 °F /  16.6 °C 29.95 in /  1014.1 hPa NNE 5.0 mph /  8 km/h 9.2 mph /  14.8 km/h 70 % 0.00 in /  0 mm
21:12 72.1 °F /  22.3 °C 62.2 °F /  16.8 °C 29.95 in /  1014.1 hPa NNE 4.8 mph /  7.7 km/h 8.1 mph /  13 km/h 71 % 0.00 in /  0 mm
21:17 72.1 °F /  22.3 °C 61.8 °F /  16.6 °C 29.95 in /  1014.1 hPa North 2.6 mph /  4.2 km/h 9.2 mph /  14.8 km/h 70 % 0.00 in /  0 mm
21:22 72.0 °F /  22.2 °C 62.1 °F /  16.7 °C 29.95 in /  1014.1 hPa NNE 3.3 mph /  5.3 km/h 8.1 mph /  13 km/h 71 % 0.00 in /  0 mm
21:27 71.9 °F /  22.2 °C 62.0 °F /  16.7 °C 29.95 in /  1014.1 hPa North 4.2 mph /  6.8 km/h 8.1 mph /  13 km/h 71 % 0.00 in /  0 mm
21:32 71.9 °F /  22.2 °C 62.4 °F /  16.9 °C 29.95 in /  1014.1 hPa NNE 4.7 mph /  7.6 km/h 6.9 mph /  11.1 km/h 72 % 0.00 in /  0 mm
21:37 71.8 °F /  22.1 °C 62.3 °F /  16.8 °C 29.95 in /  1014.1 hPa NNE 5.2 mph /  8.4 km/h 8.1 mph /  13 km/h 72 % 0.00 in /  0 mm
21:42 71.7 °F /  22.1 °C 61.8 °F /  16.6 °C 29.95 in /  1014.1 hPa North 3.3 mph /  5.3 km/h 6.9 mph /  11.1 km/h 71 % 0.00 in /  0 mm
21:47 71.7 °F /  22.1 °C 62.2 °F /  16.8 °C 29.95 in /  1014.1 hPa NNE 4.0 mph /  6.4 km/h 4.6 mph /  7.4 km/h 72 % 0.00 in /  0 mm
21:52 71.6 °F /  22 °C 62.5 °F /  16.9 °C 29.95 in /  1014.1 hPa North 3.3 mph /  5.3 km/h 5.8 mph /  9.3 km/h 73 % 0.00 in /  0 mm
21:57 71.5 °F /  21.9 °C 62.4 °F /  16.9 °C 29.95 in /  1014.1 hPa NNE 6.1 mph /  9.8 km/h 9.0 mph /  14.5 km/h 73 % 0.00 in /  0 mm
22:02 71.4 °F /  21.9 °C 62.3 °F /  16.8 °C 29.95 in /  1014.1 hPa NE 4.5 mph /  7.2 km/h 5.8 mph /  9.3 km/h 73 % 0.00 in /  0 mm
22:07 71.3 °F /  21.8 °C 61.4 °F /  16.3 °C 29.95 in /  1014.1 hPa NNE 3.6 mph /  5.8 km/h 9.2 mph /  14.8 km/h 71 % 0.00 in /  0 mm
22:13 71.2 °F /  21.8 °C 61.7 °F /  16.5 °C 29.95 in /  1014.1 hPa NNE 4.4 mph /  7.1 km/h 8.1 mph /  13 km/h 72 % 0.00 in /  0 mm
22:18 71.2 °F /  21.8 °C 61.7 °F /  16.5 °C 29.95 in /  1014.1 hPa NNE 5.6 mph /  9 km/h 9.0 mph /  14.5 km/h 72 % 0.00 in /  0 mm
22:23 71.1 °F /  21.7 °C 61.6 °F /  16.4 °C 29.95 in /  1014.1 hPa NNE 3.5 mph /  5.6 km/h 8.0 mph /  12.9 km/h 72 % 0.00 in /  0 mm
22:28 71.0 °F /  21.7 °C 61.1 °F /  16.2 °C 29.95 in /  1014.1 hPa North 4.3 mph /  6.9 km/h 9.2 mph /  14.8 km/h 71 % 0.00 in /  0 mm
22:33 71.0 °F /  21.7 °C 61.1 °F /  16.2 °C 29.95 in /  1014.1 hPa NE 4.5 mph /  7.2 km/h 8.1 mph /  13 km/h 71 % 0.00 in /  0 mm
22:38 71.0 °F /  21.7 °C 61.5 °F /  16.4 °C 29.95 in /  1014.1 hPa North 2.5 mph /  4 km/h 6.9 mph /  11.1 km/h 72 % 0.00 in /  0 mm
22:43 70.9 °F /  21.6 °C 62.2 °F /  16.8 °C 29.95 in /  1014.1 hPa NE 2.5 mph /  4 km/h 6.9 mph /  11.1 km/h 74 % 0.00 in /  0 mm
22:48 70.9 °F /  21.6 °C 61.8 °F /  16.6 °C 29.95 in /  1014.1 hPa North 2.7 mph /  4.3 km/h 6.9 mph /  11.1 km/h 73 % 0.00 in /  0 mm
22:53 70.8 °F /  21.6 °C 62.1 °F /  16.7 °C 29.95 in /  1014.1 hPa NNE 2.8 mph /  4.5 km/h 4.6 mph /  7.4 km/h 74 % 0.00 in /  0 mm
22:58 70.7 °F /  21.5 °C 61.2 °F /  16.2 °C 29.95 in /  1014.1 hPa NE 2.9 mph /  4.7 km/h 8.1 mph /  13 km/h 72 % 0.00 in /  0 mm
23:03 70.6 °F /  21.4 °C 61.1 °F /  16.2 °C 29.95 in /  1014.1 hPa North 2.5 mph /  4 km/h 6.9 mph /  11.1 km/h 72 % 0.00 in /  0 mm
23:08 70.5 °F /  21.4 °C 60.6 °F /  15.9 °C 29.95 in /  1014.1 hPa ENE 2.1 mph /  3.4 km/h 4.6 mph /  7.4 km/h 71 % 0.00 in /  0 mm
23:13 70.3 °F /  21.3 °C 59.2 °F /  15.1 °C 29.95 in /  1014.1 hPa NE 4.1 mph /  6.6 km/h 6.9 mph /  11.1 km/h 68 % 0.00 in /  0 mm
23:17 70.3 °F /  21.3 °C 59.2 °F /  15.1 °C 29.95 in /  1014.1 hPa NNE 2.7 mph /  4.3 km/h 4.6 mph /  7.4 km/h 68 % 0.00 in /  0 mm
23:22 70.2 °F /  21.2 °C 59.6 °F /  15.3 °C 29.95 in /  1014.1 hPa NE 2.7 mph /  4.3 km/h 4.6 mph /  7.4 km/h 69 % 0.00 in /  0 mm
23:27 70.2 °F /  21.2 °C 58.7 °F /  14.8 °C 29.95 in /  1014.1 hPa North 5.3 mph /  8.5 km/h 10.4 mph /  16.7 km/h 67 % 0.00 in /  0 mm
23:32 70.1 °F /  21.2 °C 58.2 °F /  14.6 °C 29.94 in /  1013.8 hPa NE 4.5 mph /  7.2 km/h 8.1 mph /  13 km/h 66 % 0.00 in /  0 mm
23:37 70.1 °F /  21.2 °C 57.8 °F /  14.3 °C 29.94 in /  1013.8 hPa North 4.8 mph /  7.7 km/h 10.4 mph /  16.7 km/h 65 % 0.00 in /  0 mm
23:40 70.1 °F /  21.2 °C 58.2 °F /  14.6 °C 29.95 in /  1014.1 hPa NNE 7.1 mph /  11.4 km/h 12.7 mph /  20.4 km/h 66 % 0.00 in /  0 mm
23:45 70.1 °F /  21.2 °C 57.8 °F /  14.3 °C 29.95 in /  1014.1 hPa NE 7.6 mph /  12.2 km/h 11.5 mph /  18.5 km/h 65 % 0.00 in /  0 mm
23:49 70.1 °F /  21.2 °C 58.2 °F /  14.6 °C 29.95 in /  1014.1 hPa NNE 7.3 mph /  11.7 km/h 11.0 mph /  17.7 km/h 66 % 0.00 in /  0 mm
23:54 70.1 °F /  21.2 °C 57.4 °F /  14.1 °C 29.95 in /  1014.1 hPa North 5.7 mph /  9.2 km/h 9.2 mph /  14.8 km/h 64 % 0.00 in /  0 mm
23:59 70.1 °F /  21.2 °C 58.2 °F /  14.6 °C 29.94 in /  1013.8 hPa NE 3.9 mph /  6.3 km/h 7.0 mph /  11.3 km/h 66 % 0.00 in /  0 mm
Crab Meadow Weather
Compliments of Weather Underground - 3 mb

Script developed by  Jim McMurry - jmcmurry@mwt.net Adapted for the template by  Wim van der Kuil - Leuven-Template.eu

Weather Terms: Winter Storm Watch - Conditions are favorable for hazardous winter weather conditions including heavy snow, blizzard conditions, or significant accumulations of freezing rain or sleet. These watches are issued by the Weather Service Forecast Office in Upton and are usually issued 12 to 36 hours in advance of the event.